WetterOnline ( https://www.wetteronline.de )

Wetter aktuell Rhön (in 800m)

Aktuelles Wetter: Wasserkuppe (925m)

6-stündlich | Neueste Meldungen
Ortszeit Temperatur Wetter
So, 17.11. 13:00 1.7° C Sprühregen
So, 17.11. 7:00 2.3° C wolkig
So, 17.11. 1:00 0.4° C Nebel
Sa, 16.11. 19:00 0.2° C bewölkt
Sa, 16.11. 13:00 1.7° C leicht bewölkt
Sa, 16.11. 7:00 -0.5° C Nebel mit Raueis
Sa, 16.11. 1:00 0.5° C leichter Regen
Fr, 15.11. 19:00 2.0° C wolkig
Ortszeit Temperatur Wetter
So, 17.11. 13:00 1.7° C Sprühregen
So, 17.11. 12:50 1.7° C Sprühregen
So, 17.11. 12:40 1.9° C Sprühregen
So, 17.11. 12:30 1.9° C Sprühregen
So, 17.11. 12:20 1.9° C Sprühregen
So, 17.11. 12:10 1.9° C Nebel
So, 17.11. 12:00 2.1° C Sprühregen
So, 17.11. 11:30 1.9° C Sprühregen
So, 17.11. 11:00 2.5° C leichter Regen
So, 17.11. 10:30 2.2° C bedeckt
So, 17.11. 10:00 2.1° C bedeckt, nach Regen
Ortszeit Relative Feuchte Sichtweite
So, 17.11. 13:00 100% 100 m
So, 17.11. 7:00 81% 55 km
So, 17.11. 1:00 100% 100 m
Sa, 16.11. 19:00 100% 5.0 km
Sa, 16.11. 13:00 83% 11 km
Sa, 16.11. 7:00 100% 100 m
Sa, 16.11. 1:00 98% 0.4 km
Fr, 15.11. 19:00 87% 30 km
Ortszeit Relative Feuchte Sichtweite
So, 17.11. 13:00 100% 100 m
So, 17.11. 12:50 100% -
So, 17.11. 12:40 100% -
So, 17.11. 12:30 100% 100 m
So, 17.11. 12:20 100% -
So, 17.11. 12:10 100% -
So, 17.11. 12:00 100% 0.3 km
So, 17.11. 11:30 98% 0.4 km
So, 17.11. 11:00 96% 7 km
So, 17.11. 10:30 94% 12 km
So, 17.11. 10:00 93% 15 km
Ortszeit Niederschlagsmenge Niederschlagsart
So, 17.11. 13:00 0.2 l/m2 in 6 Std. Regen
So, 17.11. 7:00 0.1 l/m2 in 12 Std. Nebel
So, 17.11. 1:00 0.1 l/m2 in 6 Std. Regen
Sa, 16.11. 19:00 0.0 l/m2 in 12 Std. -
Sa, 16.11. 13:00 0.0 l/m2 in 6 Std. Nebel
Sa, 16.11. 7:00 10 l/m2 in 12 Std. Schnee, Regen
Sa, 16.11. 1:00 0.1 l/m2 in 6 Std. Regen
Fr, 15.11. 19:00 0.0 l/m2 in 12 Std. -
Ortszeit Niederschlagsmenge Niederschlagsart
So, 17.11. 13:00 0.1 l/m2 in 1 Std. Regen
So, 17.11. 12:50 keine Meldung -
So, 17.11. 12:40 keine Meldung -
So, 17.11. 12:30 0.1 l/m2 in 1 Std. -
So, 17.11. 12:20 keine Meldung -
So, 17.11. 12:10 keine Meldung -
So, 17.11. 12:00 0.2 l/m2 in 1 Std. Regen, Nebel
So, 17.11. 11:30 0.2 l/m2 in 1 Std. -
So, 17.11. 11:00 0.1 l/m2 in 1 Std. -
So, 17.11. 10:30 0.0 l/m2 in 1 Std. -
So, 17.11. 10:00 0.0 l/m2 in 1 Std. -
Ortszeit Stärke Spitze Richtung
km/h Bft. km/h Grad Sektor
So, 17.11. 13:00 22 4 43 60° NO
So, 17.11. 7:00 22 4 40 90° O
So, 17.11. 1:00 14 3 40 140° SO
Sa, 16.11. 19:00 28 4 33 170° S
Sa, 16.11. 13:00 25 4 32 230° SW
Sa, 16.11. 7:00 18 3 32 350° N
Sa, 16.11. 1:00 22 4 29 270° W
Fr, 15.11. 19:00 11 2 40 40° NO
Ortszeit Stärke Spitze Richtung
km/h Bft. km/h Grad Sektor
So, 17.11. 13:00 22 4 40 60° NO
So, 17.11. 12:50 22 4 - 60° NO
So, 17.11. 12:40 25 4 - 60° NO
So, 17.11. 12:30 25 4 40 60° NO
So, 17.11. 12:20 25 4 - 60° NO
So, 17.11. 12:10 24 4 - 60° NO
So, 17.11. 12:00 26 4 41 60° NO
So, 17.11. 11:30 22 4 43 50° NO
So, 17.11. 11:00 22 4 37 70° O
So, 17.11. 10:30 19 3 31 80° O
So, 17.11. 10:00 22 4 41 80° O
Ortszeit Untergrenze Bedeckung Gattung
total tief tief mittel hoch
So, 17.11. 13:00 - 8/8 - - - -
So, 17.11. 7:00 3000 m 8/8 7/8 - As -
So, 17.11. 1:00 <30 m 8/8 0/8 - - -
Sa, 16.11. 19:00 30 m 7/8 7/8 - - -
Sa, 16.11. 13:00 - 5/8 3/8 Sc As Ci
Sa, 16.11. 7:00 <30 m 8/8 0/8 - - -
Sa, 16.11. 1:00 <30 m 7/8 0/8 - - -
Fr, 15.11. 19:00 1500 m 8/8 3/8 - - -
Ortszeit Bedeckungsgrad in Achtel und Wolkenuntergrenze
So, 17.11. 13:00 8
So, 17.11. 12:50 8(<30m)
So, 17.11. 12:40 8(<30m)
So, 17.11. 12:30 8(<30m)
So, 17.11. 12:20 7(<30m)
So, 17.11. 12:10 7(<30m) 7(360m)
So, 17.11. 12:00 7(<30m) 7(390m)
So, 17.11. 11:30 7(30m) 7(390m) 7(540m)
So, 17.11. 11:00 1(30m) 7(1080m) 7(1080m)
So, 17.11. 10:30 2(1500m) 7(1800m) 7(1800m)
So, 17.11. 10:00 7(1500m)
Ortszeit Stationsdruck (hPa) Tendenz (hPa in 3 Std.)
So, 17.11. 13:00 900 - 2,3
So, 17.11. 7:00 903 - 1,3
So, 17.11. 1:00 906 + 0,5
Sa, 16.11. 19:00 905 + 2,0
Sa, 16.11. 13:00 902 + 1,7
Sa, 16.11. 7:00 898 + 1,2
Sa, 16.11. 1:00 896 - 0,8
Fr, 15.11. 19:00 896 + 1,0
Ortszeit Stationsdruck (hPa) Tendenz (hPa in 3 Std.)
So, 17.11. 13:00 900 - 2,3
So, 17.11. 12:50 900 keine Meldung
So, 17.11. 12:40 900 keine Meldung
So, 17.11. 12:30 900 - 2,0
So, 17.11. 12:20 900 keine Meldung
So, 17.11. 12:10 900 keine Meldung
So, 17.11. 12:00 900 - 1,6
So, 17.11. 11:30 901 - 1,3
So, 17.11. 11:00 901 - 1,1
So, 17.11. 10:30 902 - 1,1
So, 17.11. 10:00 902 - 1,0
Ortszeit Schneehöhe (cm)
So, 17.11. 13:00 5
So, 17.11. 7:00 7
So, 17.11. 1:00 6
Sa, 16.11. 19:00 7
Sa, 16.11. 13:00 8
Sa, 16.11. 7:00 8
Sa, 16.11. 1:00 0
Fr, 15.11. 19:00 0
Ortszeit Schneehöhe (cm)
So, 17.11. 13:00 5
So, 17.11. 12:50 3
So, 17.11. 12:40 3
So, 17.11. 12:30 4
So, 17.11. 12:20 4
So, 17.11. 12:10 4
So, 17.11. 12:00 4
So, 17.11. 11:30 4
So, 17.11. 11:00 4
So, 17.11. 10:30 5
So, 17.11. 10:00 5
Link zu dieser Seite / Seite empfehlen

Das Wetter in ...